createdAt,value
2023-04-06T00:11:18.773Z,2.00
2023-04-06T00:14:47.900Z,1.90
2023-04-06T00:18:25.354Z,1.60
2023-04-06T00:25:44.319Z,1.70
2023-04-06T00:29:21.444Z,1.70
2023-04-06T00:32:48.805Z,1.70
2023-04-06T00:49:28.428Z,1.70
2023-04-06T01:05:44.359Z,1.90
2023-04-06T01:10:06.694Z,1.80
2023-04-06T01:27:35.951Z,1.70
2023-04-06T01:31:18.417Z,2.00
2023-04-06T01:49:02.662Z,2.00
2023-04-06T01:56:48.153Z,1.90
2023-04-06T02:05:33.447Z,1.70
2023-04-06T02:14:12.166Z,1.60
2023-04-06T02:27:22.790Z,1.20
2023-04-06T02:43:33.735Z,2.00
2023-04-06T02:48:00.623Z,1.60
2023-04-06T02:52:30.954Z,1.90
2023-04-06T02:56:00.347Z,1.70
2023-04-06T02:59:59.329Z,1.90
2023-04-06T03:03:36.766Z,1.70
2023-04-06T03:33:27.104Z,2.60
2023-04-06T03:37:30.229Z,2.20
2023-04-06T03:41:31.411Z,2.50
2023-04-06T03:50:06.888Z,3.50
2023-04-06T04:10:29.488Z,3.90
2023-04-06T04:19:29.400Z,3.50
2023-04-06T04:24:17.015Z,3.70
2023-04-06T04:29:13.788Z,3.40
2023-04-06T04:37:28.692Z,3.70
2023-04-06T05:16:25.727Z,4.00
2023-04-06T05:19:54.406Z,3.80
2023-04-06T05:28:58.397Z,4.40
2023-04-06T05:32:52.294Z,3.30
2023-04-06T05:36:19.801Z,3.80
2023-04-06T05:49:36.768Z,4.10
2023-04-06T05:58:46.241Z,3.70
2023-04-06T06:03:14.784Z,3.20
2023-04-06T06:12:42.889Z,3.10
2023-04-06T06:29:53.603Z,2.80
2023-04-06T06:37:48.484Z,2.70
2023-04-06T06:41:23.611Z,3.00
2023-04-06T06:45:26.747Z,3.20
2023-04-06T06:48:49.543Z,2.30
2023-04-06T06:52:17.431Z,2.90
2023-04-06T06:55:41.875Z,2.20
2023-04-06T06:59:07.310Z,2.60
2023-04-06T07:03:08.142Z,2.40
2023-04-06T07:06:26.869Z,2.70
2023-04-06T07:10:50.857Z,2.70
2023-04-06T07:14:43.747Z,2.60
2023-04-06T07:26:34.492Z,1.70
2023-04-06T07:30:29.401Z,2.30
2023-04-06T07:33:57.054Z,1.90
2023-04-06T07:37:21.816Z,2.10
2023-04-06T07:40:44.317Z,2.30
2023-04-06T07:44:13.370Z,1.70
2023-04-06T07:47:53.188Z,2.80
2023-04-06T07:51:29.703Z,1.80
2023-04-06T07:55:19.952Z,1.80
2023-04-06T07:58:50.612Z,1.80
2023-04-06T08:02:19.471Z,1.50
2023-04-06T08:09:44.725Z,2.00
2023-04-06T08:13:25.854Z,1.90
2023-04-06T08:21:29.970Z,1.20
2023-04-06T08:26:01.207Z,1.10
2023-04-06T08:34:17.199Z,1.60
2023-04-06T08:43:32.221Z,1.10
2023-04-06T08:57:15.369Z,1.20
2023-04-06T09:09:40.201Z,1.60
2023-04-06T09:13:15.283Z,1.30
2023-04-06T09:21:29.627Z,1.30
2023-04-06T09:25:20.242Z,1.60
2023-04-06T09:29:00.730Z,1.50
2023-04-06T09:32:22.660Z,1.30
2023-04-06T09:39:32.017Z,2.10
2023-04-06T09:43:26.558Z,1.60
2023-04-06T09:47:01.452Z,2.30
2023-04-06T09:50:41.665Z,1.20
2023-04-06T09:54:20.587Z,1.30
2023-04-06T09:57:47.817Z,1.60
2023-04-06T10:01:19.896Z,1.60
2023-04-06T10:08:36.047Z,2.20
2023-04-06T10:12:15.640Z,2.10
2023-04-06T10:15:45.098Z,1.70
2023-04-06T10:19:48.789Z,1.50
2023-04-06T10:31:41.370Z,1.80
2023-04-06T10:35:47.240Z,2.10
2023-04-06T10:40:20.772Z,2.20
2023-04-06T10:43:54.293Z,1.70
2023-04-06T10:47:30.722Z,1.50
2023-04-06T10:50:58.541Z,1.70
2023-04-06T11:02:30.873Z,1.80
2023-04-06T11:05:52.860Z,3.20
2023-04-06T11:09:30.432Z,4.60
2023-04-06T11:13:08.301Z,4.60
2023-04-06T11:20:50.166Z,3.50
2023-04-06T11:24:14.624Z,3.70
2023-04-06T11:27:55.505Z,3.80
2023-04-06T11:31:17.647Z,3.60
2023-04-06T11:34:43.995Z,3.60
2023-04-06T11:42:10.469Z,2.80
2023-04-06T11:46:06.391Z,2.80
2023-04-06T11:54:02.654Z,2.50
2023-04-06T11:57:26.519Z,2.70
2023-04-06T12:00:48.407Z,2.70
2023-04-06T12:04:16.512Z,2.40
2023-04-06T12:07:44.693Z,2.70
2023-04-06T12:11:43.577Z,2.80
2023-04-06T12:15:51.416Z,2.50
2023-04-06T12:19:13.273Z,2.40
2023-04-06T12:22:35.212Z,2.20
2023-04-06T12:25:56.790Z,2.50
2023-04-06T12:29:48.491Z,3.10
2023-04-06T12:33:54.014Z,2.50
2023-04-06T12:38:20.953Z,2.20
2023-04-06T12:41:42.672Z,2.30
2023-04-06T12:45:04.615Z,2.30
2023-04-06T12:48:29.073Z,1.70
2023-04-06T12:51:51.271Z,1.90
2023-04-06T12:55:51.380Z,1.50
2023-04-06T12:59:14.125Z,2.20
2023-04-06T13:02:37.081Z,2.40
2023-04-06T13:06:00.940Z,1.50
2023-04-06T13:09:25.539Z,2.10
2023-04-06T13:12:47.682Z,2.60
2023-04-06T13:16:10.077Z,2.10
2023-04-06T13:19:59.942Z,1.80
2023-04-06T13:23:21.624Z,2.40
2023-04-06T13:26:52.655Z,1.90
2023-04-06T13:34:38.219Z,1.70
2023-04-06T13:38:03.898Z,1.80
2023-04-06T13:41:38.259Z,2.10
2023-04-06T13:45:00.341Z,2.00
2023-04-06T13:48:23.023Z,1.80
2023-04-06T13:51:56.183Z,1.70
2023-04-06T13:55:35.462Z,2.00
2023-04-06T13:59:07.376Z,1.80
2023-04-06T14:02:30.587Z,1.90
2023-04-06T14:05:52.557Z,3.10
2023-04-06T14:09:38.055Z,2.30
2023-04-06T14:13:02.700Z,1.80
2023-04-06T14:16:27.757Z,2.10
2023-04-06T14:19:51.083Z,1.60
2023-04-06T14:23:38.463Z,1.90
2023-04-06T14:27:21.131Z,1.90
2023-04-06T14:30:45.911Z,1.70
2023-04-06T14:34:11.031Z,1.80
2023-04-06T14:37:38.300Z,2.10
2023-04-06T14:41:02.689Z,1.30
2023-04-06T14:44:24.537Z,2.40
2023-04-06T14:48:08.196Z,1.80
2023-04-06T14:51:42.870Z,1.30
2023-04-06T14:59:02.477Z,2.00
2023-04-06T15:02:24.378Z,1.80
2023-04-06T15:05:48.624Z,2.20
2023-04-06T15:09:22.791Z,2.40
2023-04-06T15:12:50.534Z,2.60
2023-04-06T15:17:14.265Z,2.60
2023-04-06T15:20:55.778Z,2.20
2023-04-06T15:24:21.731Z,2.50
2023-04-06T15:27:44.358Z,2.60
2023-04-06T15:31:36.067Z,2.10
2023-04-06T15:35:07.022Z,2.60
2023-04-06T15:38:49.171Z,2.80
2023-04-06T15:42:18.678Z,2.20
2023-04-06T15:49:22.908Z,2.70
2023-04-06T15:52:44.498Z,2.80
2023-04-06T15:56:11.686Z,2.60
2023-04-06T15:59:33.352Z,3.40
2023-04-06T16:02:57.626Z,2.70
2023-04-06T16:06:29.020Z,2.90
2023-04-06T16:09:52.188Z,2.60
2023-04-06T16:16:59.869Z,3.10
2023-04-06T16:20:21.490Z,2.80
2023-04-06T16:23:45.342Z,3.00
2023-04-06T16:27:07.527Z,3.20
2023-04-06T16:30:38.181Z,3.60
2023-04-06T16:37:53.145Z,3.30
2023-04-06T16:41:23.554Z,3.20
2023-04-06T16:44:51.337Z,3.80
2023-04-06T16:52:02.934Z,3.80
2023-04-06T16:55:24.700Z,3.50
2023-04-06T16:58:47.051Z,4.50
2023-04-06T17:02:09.138Z,3.90
2023-04-06T17:05:34.682Z,4.10
2023-04-06T17:12:51.125Z,4.70
2023-04-06T17:16:17.644Z,4.50
2023-04-06T17:19:39.492Z,4.80
2023-04-06T17:23:01.376Z,5.10
2023-04-06T17:26:26.795Z,4.40
2023-04-06T17:29:48.498Z,4.00
2023-04-06T17:33:10.138Z,3.20
2023-04-06T17:40:19.738Z,3.80
2023-04-06T17:43:42.671Z,3.80
2023-04-06T17:47:06.587Z,3.70
2023-04-06T17:50:28.162Z,3.20
2023-04-06T17:53:56.638Z,3.90
2023-04-06T17:57:33.317Z,3.70
2023-04-06T18:01:25.481Z,3.40
2023-04-06T18:04:54.017Z,3.50
2023-04-06T18:13:37.094Z,3.80
2023-04-06T18:17:07.528Z,3.20
2023-04-06T18:25:08.313Z,3.50
2023-04-06T18:28:39.398Z,3.10
2023-04-06T18:32:09.054Z,3.50
2023-04-06T18:35:31.378Z,3.20
2023-04-06T18:39:01.321Z,3.30
2023-04-06T18:42:23.079Z,3.40
2023-04-06T18:45:44.917Z,3.10
2023-04-06T18:49:12.186Z,3.60
2023-04-06T19:01:43.716Z,3.70
2023-04-06T19:05:08.320Z,4.00
2023-04-06T19:12:17.465Z,4.60
2023-04-06T19:15:46.453Z,4.30
2023-04-06T19:23:17.575Z,4.20
2023-04-06T19:30:50.596Z,5.50
2023-04-06T19:34:17.616Z,4.10
2023-04-06T19:37:39.288Z,5.60
2023-04-06T19:48:28.625Z,4.90
2023-04-06T19:52:07.735Z,3.20
2023-04-06T19:55:35.536Z,3.70
2023-04-06T20:12:08.500Z,3.00
2023-04-06T20:15:34.486Z,3.90
2023-04-06T20:19:44.846Z,2.70
2023-04-06T20:23:06.593Z,2.60
2023-04-06T20:26:28.340Z,2.20
2023-04-06T20:29:50.019Z,2.20
2023-04-06T20:33:18.267Z,2.90
2023-04-06T20:42:09.511Z,2.70
2023-04-06T20:45:31.469Z,3.40
2023-04-06T20:48:58.597Z,2.10
2023-04-06T20:57:00.619Z,2.50
2023-04-06T21:00:23.257Z,2.60
2023-04-06T21:03:45.935Z,2.30
2023-04-06T21:11:20.434Z,2.40
2023-04-06T21:14:46.845Z,2.70
2023-04-06T21:18:14.655Z,2.40
2023-04-06T21:25:13.829Z,2.80
2023-04-06T21:32:58.666Z,3.00
2023-04-06T21:41:12.375Z,3.60
2023-04-06T21:44:36.464Z,3.30
2023-04-06T21:48:09.260Z,2.80
2023-04-06T21:51:40.275Z,2.70
2023-04-06T21:55:06.091Z,2.60
2023-04-06T21:58:33.173Z,2.80
2023-04-06T22:02:05.558Z,3.00
2023-04-06T22:05:30.262Z,3.30
2023-04-06T22:09:08.367Z,3.50
2023-04-06T22:12:36.628Z,4.20
2023-04-06T22:15:58.687Z,3.10
2023-04-06T22:19:20.709Z,3.20
2023-04-06T22:27:33.608Z,3.20
2023-04-06T22:31:06.703Z,3.00
2023-04-06T22:39:04.010Z,3.40
2023-04-06T22:42:40.626Z,3.70
2023-04-06T22:46:02.346Z,3.60
2023-04-06T22:49:35.729Z,3.70
2023-04-06T22:57:22.606Z,3.40
2023-04-06T23:00:50.662Z,3.30
2023-04-06T23:04:14.448Z,4.00
2023-04-06T23:07:38.298Z,3.70
2023-04-06T23:11:06.566Z,3.70
2023-04-06T23:14:32.940Z,3.10
2023-04-06T23:32:08.692Z,3.90
2023-04-06T23:35:33.579Z,3.90
2023-04-06T23:39:11.051Z,3.50
2023-04-06T23:43:23.895Z,3.20
2023-04-06T23:47:17.760Z,3.80
2023-04-06T23:50:44.667Z,3.40
2023-04-06T23:54:06.335Z,3.70
